Time;durP1;ratioP1;P1;durP2;ratioP2;P2;SDS_P1;SDS_P2;PMS_P1;PMS_P2;Temp;Humidity;BMP_temperature;BMP_pressure;BME280_temperature;BME280_humidity;BME280_pressure;Samples;Min_cycle;Max_cycle;Signal;HPM_P1;HPM_P2
2022/10/04 00:00:10;;;;;;;9.43;3.80;;;;;;;;;;8314865;28;20137;-87
2022/10/04 00:04:44;;;;;;;10.50;4.32;;;;;;;;;;8332601;28;20050;-88
2022/10/04 00:08:54;;;;;;;11.70;4.82;;;;;;;;;;8315126;28;20049;-85
2022/10/04 00:13:01;;;;;;;10.90;4.68;;;;;;;;;;8332095;28;20084;-86
2022/10/04 00:17:11;;;;;;;14.38;5.00;;;;;;;;;;8315251;28;20141;-86
2022/10/04 00:21:13;;;;;;;9.27;3.63;;;;;;;;;;8331276;28;20049;-86
2022/10/04 00:25:21;;;;;;;13.45;5.03;;;;;;;;;;8331741;28;20500;-86
2022/10/04 00:29:31;;;;;;;14.45;4.85;;;;;;;;;;8331693;28;20123;-85
2022/10/04 00:33:41;;;;;;;13.23;5.50;;;;;;;;;;8332157;28;20053;-85
2022/10/04 00:37:57;;;;;;;9.95;5.15;;;;;;;;;;8331563;28;20060;-85
2022/10/04 00:42:32;;;;;;;12.35;5.22;;;;;;;;;;8331709;28;20159;-85
2022/10/04 00:46:36;;;;;;;11.98;4.57;;;;;;;;;;8313946;28;20057;-85
2022/10/04 00:50:42;;;;;;;11.75;4.80;;;;;;;;;;8330963;28;20049;-86
2022/10/04 00:54:49;;;;;;;13.77;5.15;;;;;;;;;;8314369;28;20132;-85
2022/10/04 00:59:22;;;;;;;13.43;4.65;;;;;;;;;;8314003;28;20132;-85
2022/10/04 01:03:30;;;;;;;12.90;5.38;;;;;;;;;;8331026;28;20425;-86
2022/10/04 01:07:38;;;;;;;10.85;4.75;;;;;;;;;;8330935;28;20041;-86
2022/10/04 01:11:45;;;;;;;15.90;6.38;;;;;;;;;;8330761;28;20071;-86
2022/10/04 01:15:55;;;;;;;16.23;5.93;;;;;;;;;;8330441;28;20120;-85
2022/10/04 01:20:00;;;;;;;12.27;6.13;;;;;;;;;;8330514;28;20045;-86
2022/10/04 01:24:22;;;;;;;10.13;4.45;;;;;;;;;;8313052;28;20057;-89
2022/10/04 01:28:25;;;;;;;12.48;5.28;;;;;;;;;;8330210;28;20064;-86
2022/10/04 01:32:29;;;;;;;14.52;5.38;;;;;;;;;;8312938;28;20054;-87
2022/10/04 01:36:36;;;;;;;16.50;5.32;;;;;;;;;;8330280;28;20045;-87
2022/10/04 01:40:49;;;;;;;13.50;5.43;;;;;;;;;;8312574;28;20046;-86
2022/10/04 01:44:58;;;;;;;14.15;5.00;;;;;;;;;;8312358;28;20047;-87
2022/10/04 01:49:03;;;;;;;10.30;5.53;;;;;;;;;;8330289;28;20052;-86
2022/10/04 01:53:16;;;;;;;11.30;5.47;;;;;;;;;;8329968;28;20069;-86
2022/10/04 01:57:24;;;;;;;11.50;4.63;;;;;;;;;;8329902;28;20053;-88
2022/10/04 02:01:31;;;;;;;11.60;5.07;;;;;;;;;;8312519;28;20056;-85
2022/10/04 02:05:37;;;;;;;12.63;5.40;;;;;;;;;;8312657;28;20497;-86
2022/10/04 02:09:43;;;;;;;6.90;3.47;;;;;;;;;;8329539;28;20102;-86
2022/10/04 02:13:50;;;;;;;15.93;6.10;;;;;;;;;;8329292;28;20053;-85
2022/10/04 02:17:56;;;;;;;14.65;5.97;;;;;;;;;;8329414;28;20643;-83
2022/10/04 02:22:02;;;;;;;11.52;5.43;;;;;;;;;;8329451;28;20501;-87
2022/10/04 02:26:08;;;;;;;8.93;4.90;;;;;;;;;;8329219;28;20097;-85
2022/10/04 02:30:14;;;;;;;14.88;5.43;;;;;;;;;;8312308;28;20045;-85
2022/10/04 02:34:21;;;;;;;13.40;5.22;;;;;;;;;;8329280;28;20099;-86
2022/10/04 02:38:30;;;;;;;11.43;4.97;;;;;;;;;;8328997;28;20394;-86
2022/10/04 02:42:42;;;;;;;11.15;5.20;;;;;;;;;;8328688;28;20061;-87
2022/10/04 02:46:53;;;;;;;7.70;4.07;;;;;;;;;;8316613;28;20038;-88
2022/10/04 02:51:02;;;;;;;8.57;4.82;;;;;;;;;;8317399;28;20117;-86
2022/10/04 02:55:10;;;;;;;9.07;4.60;;;;;;;;;;8318242;28;20057;-87
2022/10/04 02:59:18;;;;;;;18.02;7.45;;;;;;;;;;8317486;28;20049;-86
2022/10/04 03:03:28;;;;;;;11.45;6.60;;;;;;;;;;8317404;28;20140;-87
2022/10/04 03:07:33;;;;;;;8.73;5.25;;;;;;;;;;8334306;28;20058;-87
2022/10/04 03:11:41;;;;;;;11.85;5.38;;;;;;;;;;8335029;28;20048;-88
2022/10/04 03:15:43;;;;;;;15.93;6.40;;;;;;;;;;8334035;28;20037;-87
2022/10/04 03:19:51;;;;;;;16.73;10.65;;;;;;;;;;8334178;28;20057;-87
2022/10/04 03:23:54;;;;;;;11.57;6.75;;;;;;;;;;8317138;28;20493;-86
2022/10/04 03:28:04;;;;;;;14.45;6.57;;;;;;;;;;8333871;28;20049;-87
2022/10/04 03:32:06;;;;;;;16.15;7.07;;;;;;;;;;8316817;28;20056;-85
2022/10/04 03:36:15;;;;;;;17.90;7.93;;;;;;;;;;8333392;28;20049;-86
2022/10/04 03:40:18;;;;;;;19.20;8.77;;;;;;;;;;8315876;28;20091;-86
2022/10/04 03:44:22;;;;;;;13.88;5.93;;;;;;;;;;8316030;28;20049;-85
2022/10/04 03:48:31;;;;;;;12.75;6.78;;;;;;;;;;8316481;28;20397;-87
2022/10/04 03:52:37;;;;;;;11.52;5.90;;;;;;;;;;8334246;28;20048;-86
2022/10/04 03:56:40;;;;;;;13.57;6.78;;;;;;;;;;8333073;28;20404;-86
2022/10/04 04:00:46;;;;;;;10.48;5.70;;;;;;;;;;8333263;28;20045;-86
2022/10/04 04:04:58;;;;;;;11.88;5.78;;;;;;;;;;8316102;28;20053;-86
2022/10/04 04:09:07;;;;;;;;;;;;;;;;;;8335002;28;20045;-87
2022/10/04 04:13:21;;;;;;;8.85;4.32;;;;;;;;;;8324385;28;19989;-86
2022/10/04 04:17:40;;;;;;;11.07;4.97;;;;;;;;;;8315568;28;20481;-87
2022/10/04 04:21:43;;;;;;;10.20;5.47;;;;;;;;;;8314691;28;20179;-86
2022/10/04 04:25:49;;;;;;;13.93;6.30;;;;;;;;;;8332666;28;20049;-86
2022/10/04 04:29:55;;;;;;;13.63;6.22;;;;;;;;;;8318987;28;20061;-89
2022/10/04 04:43:35;;;;;;;15.45;6.18;;;;;;;;;;8266027;28;20077;-90
2022/10/04 04:47:40;;;;;;;17.48;7.88;;;;;;;;;;8248791;28;20050;-86
2022/10/04 04:51:49;;;;;;;13.25;6.95;;;;;;;;;;8266200;28;20046;-89
2022/10/04 05:06:32;;;;;;;14.45;7.93;;;;;;;;;;8255421;28;20053;-87
2022/10/04 05:10:35;;;;;;;15.13;6.97;;;;;;;;;;8265245;28;20049;-85
2022/10/04 05:14:40;;;;;;;20.38;7.25;;;;;;;;;;8265369;28;20121;-87
2022/10/04 05:18:44;;;;;;;15.60;7.28;;;;;;;;;;8248949;28;20064;-86
2022/10/04 05:22:50;;;;;;;18.63;9.07;;;;;;;;;;8248017;28;20418;-88
2022/10/04 05:26:59;;;;;;;12.45;5.60;;;;;;;;;;8265420;28;20124;-87
2022/10/04 05:31:26;;;;;;;13.15;6.15;;;;;;;;;;8248557;28;20092;-86
2022/10/04 05:35:38;;;;;;;13.10;5.80;;;;;;;;;;8247979;28;20070;-88
2022/10/04 05:39:50;;;;;;;12.75;6.35;;;;;;;;;;8247901;28;20046;-87
2022/10/04 05:43:54;;;;;;;15.43;5.75;;;;;;;;;;8247882;28;20046;-87
2022/10/04 05:48:00;;;;;;;14.43;5.38;;;;;;;;;;8265002;28;20062;-87
2022/10/04 05:52:14;;;;;;;14.73;5.95;;;;;;;;;;8258081;28;20513;-86
2022/10/04 05:56:36;;;;;;;14.13;6.28;;;;;;;;;;8264878;28;20050;-86
2022/10/04 06:00:45;;;;;;;17.08;6.15;;;;;;;;;;8247911;28;20057;-86
2022/10/04 06:05:01;;;;;;;12.30;5.38;;;;;;;;;;8265275;28;20051;-89
2022/10/04 06:09:14;;;;;;;21.73;6.07;;;;;;;;;;8245617;28;20681;-89
2022/10/04 06:13:36;;;;;;;17.83;6.03;;;;;;;;;;8239548;28;20046;-86
2022/10/04 06:17:56;;;;;;;16.02;7.03;;;;;;;;;;8251574;28;20491;-88
2022/10/04 06:22:15;;;;;;;17.10;6.32;;;;;;;;;;8340137;23;20054;-88
2022/10/04 06:26:23;;;;;;;21.95;10.35;;;;;;;;;;8262521;28;20061;-86
2022/10/04 06:30:43;;;;;;;24.33;7.63;;;;;;;;;;8265116;28;20108;-86
2022/10/04 06:35:17;;;;;;;13.95;6.47;;;;;;;;;;8269532;28;20482;-86
2022/10/04 06:39:33;;;;;;;15.82;6.57;;;;;;;;;;8236698;28;20627;-86
2022/10/04 06:44:13;;;;;;;14.20;6.20;;;;;;;;;;8270084;28;20526;-86
2022/10/04 06:48:36;;;;;;;14.73;5.88;;;;;;;;;;8284274;28;20050;-87
2022/10/04 06:52:53;;;;;;;17.52;6.18;;;;;;;;;;8295280;28;20053;-87
2022/10/04 06:57:16;;;;;;;14.90;5.47;;;;;;;;;;8296406;28;20130;-86
2022/10/04 07:01:27;;;;;;;10.43;4.82;;;;;;;;;;8291899;28;20050;-88
2022/10/04 07:05:39;;;;;;;11.40;4.60;;;;;;;;;;8288129;28;20046;-87
2022/10/04 07:09:44;;;;;;;17.17;4.90;;;;;;;;;;8292658;28;20061;-85
2022/10/04 07:13:55;;;;;;;11.93;4.90;;;;;;;;;;8269796;28;20074;-87
2022/10/04 07:18:03;;;;;;;9.90;4.70;;;;;;;;;;8268939;28;20494;-86
2022/10/04 07:27:30;;;;;;;16.85;5.05;;;;;;;;;;8334399;28;20053;-89
2022/10/04 07:32:45;;;;;;;8.00;4.00;;;;;;;;;;8323135;28;20095;-87
2022/10/04 07:37:33;;;;;;;13.32;6.13;;;;;;;;;;8320145;28;20045;-88
2022/10/04 07:42:22;;;;;;;15.40;5.70;;;;;;;;;;8333980;28;20057;-87
2022/10/04 07:57:01;;;;;;;12.10;5.88;;;;;;;;;;8179096;29;20059;-88
2022/10/04 08:01:10;;;;;;;11.13;4.60;;;;;;;;;;8193991;29;20463;-90
2022/10/04 08:05:22;;;;;;;16.27;5.40;;;;;;;;;;8239789;28;20429;-87
2022/10/04 08:09:40;;;;;;;15.35;6.20;;;;;;;;;;8315518;28;20497;-88
2022/10/04 08:13:51;;;;;;;11.05;4.85;;;;;;;;;;8300209;28;20049;-87
2022/10/04 08:18:01;;;;;;;11.95;4.80;;;;;;;;;;8320589;28;20057;-88
2022/10/04 08:26:58;;;;;;;17.75;6.30;;;;;;;;;;8340279;28;20053;-87
2022/10/04 08:31:14;;;;;;;11.75;5.45;;;;;;;;;;8346292;28;20064;-86
2022/10/04 08:35:43;;;;;;;9.52;5.18;;;;;;;;;;8339209;28;20485;-88
2022/10/04 08:40:02;;;;;;;14.48;6.65;;;;;;;;;;8316033;28;20060;-89
2022/10/04 08:44:41;;;;;;;11.57;5.60;;;;;;;;;;8338407;28;20041;-87
2022/10/04 08:49:26;;;;;;;7.25;3.88;;;;;;;;;;8341596;28;20048;-86
2022/10/04 08:54:14;;;;;;;13.75;6.25;;;;;;;;;;8326649;28;20054;-88
2022/10/04 08:58:43;;;;;;;10.27;4.90;;;;;;;;;;8321058;28;20081;-87
2022/10/04 09:03:35;;;;;;;10.95;3.47;;;;;;;;;;8327599;28;20054;-87
2022/10/04 09:08:19;;;;;;;7.43;3.60;;;;;;;;;;8311221;28;20056;-91
2022/10/04 09:12:55;;;;;;;10.15;4.68;;;;;;;;;;8295251;28;20060;-87
2022/10/04 09:17:20;;;;;;;12.40;3.10;;;;;;;;;;8321639;28;20052;-91
2022/10/04 09:21:45;;;;;;;9.43;4.85;;;;;;;;;;8337712;28;20114;-88
2022/10/04 09:26:04;;;;;;;10.30;4.25;;;;;;;;;;8271214;28;20054;-87
2022/10/04 09:30:19;;;;;;;7.30;2.60;;;;;;;;;;8364488;23;20052;-88
2022/10/04 09:55:14;;;;;;;8.10;3.67;;;;;;;;;;8210954;28;20109;-87
2022/10/04 09:59:57;;;;;;;9.18;3.10;;;;;;;;;;8237408;28;20038;-92
2022/10/04 10:04:47;;;;;;;7.80;2.45;;;;;;;;;;8314408;23;20049;-87
2022/10/04 10:24:36;;;;;;;5.45;3.25;;;;;;;;;;8467566;23;20165;-88
2022/10/04 10:29:31;;;;;;;4.95;2.53;;;;;;;;;;8293115;28;20069;-89
2022/10/04 10:40:08;;;;;;;8.23;3.55;;;;;;;;;;8539077;23;20116;-89
2022/10/04 10:50:04;;;;;;;5.07;3.00;;;;;;;;;;9044893;23;20103;-87
2022/10/04 10:54:48;;;;;;;6.30;3.50;;;;;;;;;;8335523;28;20451;-88
2022/10/04 11:37:23;;;;;;;6.50;3.58;;;;;;;;;;8312730;28;20057;-88
2022/10/04 11:41:59;;;;;;;5.03;3.00;;;;;;;;;;8316803;28;20049;-89
2022/10/04 11:47:15;;;;;;;8.13;3.15;;;;;;;;;;8299622;28;20761;-88
2022/10/04 12:01:46;;;;;;;7.47;3.45;;;;;;;;;;9023091;22;20428;-88
2022/10/04 12:06:16;;;;;;;6.07;3.42;;;;;;;;;;8345925;28;20041;-89
2022/10/04 12:10:26;;;;;;;7.10;3.28;;;;;;;;;;8358626;28;20136;-88
2022/10/04 12:14:43;;;;;;;7.05;2.67;;;;;;;;;;8327512;28;20126;-91
2022/10/04 12:19:18;;;;;;;5.40;2.72;;;;;;;;;;8339282;28;20048;-89
2022/10/04 12:23:46;;;;;;;5.90;2.63;;;;;;;;;;8334897;28;20105;-88
2022/10/04 12:28:11;;;;;;;4.90;2.90;;;;;;;;;;8351314;28;20167;-88
2022/10/04 12:32:18;;;;;;;5.60;2.95;;;;;;;;;;8351727;28;20051;-92
2022/10/04 12:36:33;;;;;;;7.00;3.17;;;;;;;;;;8346080;28;20075;-87
2022/10/04 12:40:43;;;;;;;11.50;4.55;;;;;;;;;;8355009;28;20049;-89
2022/10/04 12:45:03;;;;;;;7.57;3.75;;;;;;;;;;8353183;28;20053;-87
2022/10/04 12:49:28;;;;;;;14.23;4.85;;;;;;;;;;8345157;28;20061;-92
2022/10/04 12:53:51;;;;;;;17.48;8.55;;;;;;;;;;8328721;28;20830;-87
2022/10/04 12:58:03;;;;;;;12.23;4.90;;;;;;;;;;8347545;28;20083;-89
2022/10/04 13:02:57;;;;;;;7.80;3.63;;;;;;;;;;8361930;28;20139;-90
2022/10/04 13:07:53;;;;;;;12.70;3.72;;;;;;;;;;8351211;28;20041;-89
2022/10/04 13:12:15;;;;;;;14.68;6.05;;;;;;;;;;8326993;28;20076;-86
2022/10/04 13:16:43;;;;;;;9.52;4.25;;;;;;;;;;8341070;28;20124;-89
2022/10/04 13:21:03;;;;;;;6.70;3.38;;;;;;;;;;8346536;28;20037;-93
2022/10/04 13:25:25;;;;;;;10.20;3.97;;;;;;;;;;8859307;22;20050;-89
2022/10/04 13:30:04;;;;;;;6.22;3.10;;;;;;;;;;8311339;28;20102;-88
2022/10/04 13:34:30;;;;;;;8.43;3.10;;;;;;;;;;8344510;28;20045;-87
2022/10/04 13:39:08;;;;;;;8.43;3.35;;;;;;;;;;8353664;28;20053;-87
2022/10/04 13:43:32;;;;;;;12.80;4.65;;;;;;;;;;8355184;28;20052;-88
2022/10/04 13:57:45;;;;;;;13.00;4.78;;;;;;;;;;8338740;28;20041;-88
2022/10/04 14:02:30;;;;;;;13.57;6.17;;;;;;;;;;8338222;28;20053;-87
2022/10/04 14:07:18;;;;;;;19.92;5.65;;;;;;;;;;8348378;28;20459;-87
2022/10/04 14:12:04;;;;;;;15.60;6.55;;;;;;;;;;8329167;28;20054;-91
2022/10/04 14:16:32;;;;;;;13.20;5.70;;;;;;;;;;8326281;28;20053;-88
2022/10/04 14:21:12;;;;;;;14.85;5.93;;;;;;;;;;8315076;28;20127;-91
2022/10/04 14:25:45;;;;;;;22.88;7.43;;;;;;;;;;8348556;28;20049;-87
2022/10/04 14:30:19;;;;;;;18.83;5.95;;;;;;;;;;8317473;28;20053;-87
2022/10/04 14:34:52;;;;;;;13.25;5.38;;;;;;;;;;8338200;28;20051;-86
2022/10/04 14:39:51;;;;;;;18.10;6.72;;;;;;;;;;8674850;22;20049;-88
2022/10/04 14:44:16;;;;;;;14.00;6.90;;;;;;;;;;8243392;28;20060;-87
2022/10/04 14:48:39;;;;;;;15.48;6.90;;;;;;;;;;8338146;28;20041;-89
2022/10/04 14:53:35;;;;;;;9.77;4.65;;;;;;;;;;8338631;28;20087;-89
2022/10/04 14:57:54;;;;;;;9.07;4.70;;;;;;;;;;8336414;28;20056;-89
2022/10/04 15:02:25;;;;;;;7.03;3.47;;;;;;;;;;8336395;28;20069;-88
2022/10/04 15:16:19;;;;;;;7.95;3.53;;;;;;;;;;8307623;28;20072;-88
2022/10/04 15:20:29;;;;;;;7.90;4.25;;;;;;;;;;8311579;28;20049;-87
2022/10/04 15:24:45;;;;;;;11.68;4.05;;;;;;;;;;8316398;28;20063;-87
2022/10/04 15:29:09;;;;;;;9.90;5.43;;;;;;;;;;8288245;28;20437;-88
2022/10/04 15:38:49;;;;;;;11.88;5.90;;;;;;;;;;8305695;28;20084;-88
2022/10/04 15:46:56;;;;;;;24.92;13.30;;;;;;;;;;8531326;23;20122;-87
2022/10/04 15:51:11;;;;;;;28.80;15.77;;;;;;;;;;8359107;28;20500;-88
2022/10/04 15:55:48;;;;;;;21.15;9.68;;;;;;;;;;8337615;28;20037;-88
2022/10/04 15:59:55;;;;;;;16.13;7.65;;;;;;;;;;8345609;28;20052;-88
2022/10/04 16:04:23;;;;;;;13.38;7.22;;;;;;;;;;8322471;28;20056;-88
2022/10/04 16:08:50;;;;;;;15.32;6.75;;;;;;;;;;8344671;28;20489;-88
2022/10/04 16:13:13;;;;;;;17.63;8.30;;;;;;;;;;8740761;23;20084;-88
2022/10/04 16:17:46;;;;;;;25.48;12.95;;;;;;;;;;8294436;28;20053;-87
2022/10/04 16:21:56;;;;;;;29.20;13.98;;;;;;;;;;8297667;28;20057;-88
2022/10/04 16:26:05;;;;;;;29.10;15.03;;;;;;;;;;8298072;28;20064;-90
2022/10/04 16:30:17;;;;;;;37.53;16.45;;;;;;;;;;8303579;28;20052;-87
2022/10/04 16:34:40;;;;;;;35.63;13.70;;;;;;;;;;8307625;28;20068;-88
2022/10/04 16:43:09;;;;;;;22.52;9.77;;;;;;;;;;8316934;28;20069;-88
2022/10/04 16:47:22;;;;;;;23.17;10.63;;;;;;;;;;8311239;28;20058;-87
2022/10/04 16:51:46;;;;;;;16.27;8.50;;;;;;;;;;8293037;28;20068;-87
2022/10/04 16:55:55;;;;;;;12.82;7.78;;;;;;;;;;8301284;28;20049;-87
2022/10/04 17:00:04;;;;;;;19.58;8.70;;;;;;;;;;8309668;28;20104;-87
2022/10/04 17:04:26;;;;;;;15.90;8.13;;;;;;;;;;8284360;28;20053;-87
2022/10/04 17:08:51;;;;;;;29.67;16.02;;;;;;;;;;8302344;28;20076;-87
2022/10/04 17:13:03;;;;;;;40.97;23.10;;;;;;;;;;8302994;28;20409;-87
2022/10/04 17:17:15;;;;;;;70.35;35.47;;;;;;;;;;8286593;28;20061;-88
2022/10/04 17:21:40;;;;;;;50.63;26.13;;;;;;;;;;8301863;28;20042;-88
2022/10/04 17:25:54;;;;;;;37.78;21.77;;;;;;;;;;8291256;28;20515;-87
2022/10/04 17:30:18;;;;;;;48.45;26.30;;;;;;;;;;8314547;28;20046;-88
2022/10/04 17:34:36;;;;;;;73.15;36.53;;;;;;;;;;8286503;28;20060;-87
2022/10/04 17:38:49;;;;;;;275.10;99.15;;;;;;;;;;8294548;28;20060;-87
2022/10/04 17:43:00;;;;;;;103.05;49.35;;;;;;;;;;8298515;28;20049;-89
2022/10/04 17:47:10;;;;;;;97.75;50.60;;;;;;;;;;8288418;28;20460;-87
2022/10/04 17:55:54;;;;;;;135.52;54.08;;;;;;;;;;8281797;28;20437;-85
2022/10/04 18:00:08;;;;;;;64.72;33.53;;;;;;;;;;8340531;23;20502;-90
2022/10/04 18:04:18;;;;;;;56.95;32.80;;;;;;;;;;8302452;28;20040;-89
2022/10/04 18:08:35;;;;;;;41.10;25.40;;;;;;;;;;8299963;28;20037;-88
2022/10/04 18:12:49;;;;;;;140.70;63.47;;;;;;;;;;8327365;28;20481;-90
2022/10/04 18:16:59;;;;;;;121.40;48.92;;;;;;;;;;8310355;28;20069;-88
2022/10/04 18:21:06;;;;;;;233.98;90.72;;;;;;;;;;8314330;28;20041;-88
2022/10/04 18:25:25;;;;;;;252.77;112.22;;;;;;;;;;8331691;28;20400;-89
2022/10/04 18:29:39;;;;;;;142.18;57.58;;;;;;;;;;8385437;23;20100;-88
2022/10/04 18:33:49;;;;;;;37.22;18.42;;;;;;;;;;8318451;28;20048;-90
2022/10/04 18:37:53;;;;;;;61.63;35.08;;;;;;;;;;8330383;28;20092;-86
2022/10/04 18:42:16;;;;;;;55.97;30.70;;;;;;;;;;8322231;28;20412;-89
2022/10/04 18:46:22;;;;;;;172.48;67.40;;;;;;;;;;8319305;28;20107;-89
2022/10/04 18:50:36;;;;;;;89.20;40.95;;;;;;;;;;8327044;28;20105;-88
2022/10/04 18:54:49;;;;;;;65.43;32.08;;;;;;;;;;8343807;28;20064;-88
2022/10/04 19:03:39;;;;;;;36.60;19.45;;;;;;;;;;8356927;28;20101;-89
2022/10/04 19:07:50;;;;;;;53.10;22.65;;;;;;;;;;8358189;28;20053;-87
2022/10/04 19:11:57;;;;;;;135.70;57.65;;;;;;;;;;8358011;28;20041;-86
2022/10/04 19:16:20;;;;;;;83.72;41.65;;;;;;;;;;8342119;28;20041;-87
2022/10/04 19:20:32;;;;;;;119.30;48.67;;;;;;;;;;8335381;28;20041;-86
2022/10/04 19:24:45;;;;;;;;;;;;;;;;;;8335322;28;20473;-85
2022/10/04 19:28:56;;;;;;;54.88;27.27;;;;;;;;;;8306337;28;19928;-86
2022/10/04 19:33:14;;;;;;;63.55;27.55;;;;;;;;;;8333123;28;20144;-87
2022/10/04 19:37:27;;;;;;;80.47;30.67;;;;;;;;;;8333613;28;20053;-87
2022/10/04 19:41:48;;;;;;;41.78;20.35;;;;;;;;;;8333313;28;20491;-85
2022/10/04 19:46:09;;;;;;;27.83;14.18;;;;;;;;;;8332471;28;20053;-88
2022/10/04 19:50:20;;;;;;;;;;;;;;;;;;8317229;28;20406;-86
2022/10/04 19:54:35;;;;;;;131.70;39.70;;;;;;;;;;8313431;28;19922;-87
2022/10/04 19:58:44;;;;;;;59.72;25.48;;;;;;;;;;8317194;28;20144;-88
2022/10/04 20:02:49;;;;;;;53.17;22.75;;;;;;;;;;8318709;28;20045;-86
2022/10/04 20:06:59;;;;;;;136.65;44.72;;;;;;;;;;8331515;28;20080;-86
2022/10/04 20:11:18;;;;;;;59.33;23.67;;;;;;;;;;8332848;28;20041;-86
2022/10/04 20:15:45;;;;;;;27.73;15.23;;;;;;;;;;8331204;28;20053;-87
2022/10/04 20:19:50;;;;;;;73.80;30.98;;;;;;;;;;8318348;28;20052;-86
2022/10/04 20:23:54;;;;;;;68.22;27.85;;;;;;;;;;8331303;28;20115;-87
2022/10/04 20:28:05;;;;;;;71.90;30.48;;;;;;;;;;8331821;28;20072;-86
2022/10/04 20:32:09;;;;;;;41.57;19.97;;;;;;;;;;8330283;28;20111;-88
2022/10/04 20:36:14;;;;;;;29.02;11.43;;;;;;;;;;8330981;28;20053;-87
2022/10/04 20:40:46;;;;;;;106.28;49.00;;;;;;;;;;8330417;28;20597;-86
2022/10/04 20:44:58;;;;;;;162.57;65.13;;;;;;;;;;8331342;28;20107;-86
2022/10/04 20:49:05;;;;;;;44.00;14.02;;;;;;;;;;8330372;28;20084;-88
2022/10/04 20:53:16;;;;;;;43.55;15.52;;;;;;;;;;8330667;28;20061;-87
2022/10/04 20:57:22;;;;;;;21.38;10.95;;;;;;;;;;8331514;28;20049;-87
2022/10/04 21:01:42;;;;;;;126.13;49.25;;;;;;;;;;8330603;28;20053;-86
2022/10/04 21:06:00;;;;;;;142.77;31.48;;;;;;;;;;8330854;28;20449;-87
2022/10/04 21:10:15;;;;;;;153.10;35.10;;;;;;;;;;8329764;28;20052;-86
2022/10/04 21:14:25;;;;;;;46.58;23.23;;;;;;;;;;8331085;28;20052;-86
2022/10/04 21:18:32;;;;;;;36.55;17.80;;;;;;;;;;8316125;28;20496;-87
2022/10/04 21:22:42;;;;;;;38.92;16.17;;;;;;;;;;8329641;28;20485;-86
2022/10/04 21:26:55;;;;;;;85.00;23.85;;;;;;;;;;8329073;28;20128;-87
2022/10/04 21:30:59;;;;;;;104.38;46.30;;;;;;;;;;8330189;28;20061;-87
2022/10/04 21:35:05;;;;;;;66.38;32.88;;;;;;;;;;8330143;28;20141;-87
2022/10/04 21:39:08;;;;;;;81.13;33.95;;;;;;;;;;8313126;28;20468;-87
2022/10/04 21:43:11;;;;;;;49.38;24.05;;;;;;;;;;8312723;28;20496;-86
2022/10/04 21:47:15;;;;;;;87.13;23.63;;;;;;;;;;8329836;28;20049;-86
2022/10/04 21:51:19;;;;;;;51.22;18.00;;;;;;;;;;8312475;28;20053;-87
2022/10/04 21:55:24;;;;;;;39.10;17.95;;;;;;;;;;8329675;28;20038;-87
2022/10/04 21:59:29;;;;;;;80.55;34.42;;;;;;;;;;8312462;28;20052;-87
2022/10/04 22:03:32;;;;;;;50.45;24.67;;;;;;;;;;8329646;28;20108;-87
2022/10/04 22:07:39;;;;;;;45.05;23.80;;;;;;;;;;8312902;28;20076;-87
2022/10/04 22:11:42;;;;;;;28.15;14.57;;;;;;;;;;8312740;28;20549;-87
2022/10/04 22:15:45;;;;;;;33.45;13.35;;;;;;;;;;8328532;28;20768;-87
2022/10/04 22:19:51;;;;;;;24.13;11.98;;;;;;;;;;8316670;28;20044;-87
2022/10/04 22:23:59;;;;;;;37.58;17.98;;;;;;;;;;8298851;28;20447;-86
2022/10/04 22:28:09;;;;;;;61.42;23.50;;;;;;;;;;8312532;28;20095;-87
2022/10/04 22:32:20;;;;;;;24.13;10.85;;;;;;;;;;8339638;28;20144;-87
2022/10/04 22:36:26;;;;;;;58.30;23.27;;;;;;;;;;8344627;28;20106;-85
2022/10/04 22:40:33;;;;;;;28.98;13.38;;;;;;;;;;8345067;28;20299;-86
2022/10/04 22:44:39;;;;;;;22.42;11.02;;;;;;;;;;8345149;28;20407;-87
2022/10/04 22:48:44;;;;;;;27.67;10.75;;;;;;;;;;8362011;28;20118;-86
2022/10/04 22:52:47;;;;;;;23.85;9.93;;;;;;;;;;8345187;28;20049;-85
2022/10/04 22:56:51;;;;;;;25.00;10.98;;;;;;;;;;8361660;28;20056;-88
2022/10/04 23:00:57;;;;;;;43.33;17.40;;;;;;;;;;8362009;28;20082;-87
2022/10/04 23:05:10;;;;;;;38.40;15.95;;;;;;;;;;8350621;28;20253;-87
2022/10/04 23:09:16;;;;;;;23.50;10.07;;;;;;;;;;8368162;28;20048;-86
2022/10/04 23:13:25;;;;;;;20.13;9.02;;;;;;;;;;8350535;28;20567;-86
2022/10/04 23:17:32;;;;;;;24.83;9.35;;;;;;;;;;8367256;28;20041;-87
2022/10/04 23:21:41;;;;;;;22.50;9.90;;;;;;;;;;8349774;28;20041;-86
2022/10/04 23:25:47;;;;;;;32.55;15.23;;;;;;;;;;8349763;28;20052;-86
2022/10/04 23:29:58;;;;;;;23.60;11.52;;;;;;;;;;8349629;28;20505;-87
2022/10/04 23:34:03;;;;;;;19.45;8.75;;;;;;;;;;8366861;28;20409;-86
2022/10/04 23:38:07;;;;;;;18.08;9.63;;;;;;;;;;8349716;28;20057;-87
2022/10/04 23:42:17;;;;;;;18.35;9.32;;;;;;;;;;8364673;28;20429;-86
2022/10/04 23:46:23;;;;;;;27.42;9.32;;;;;;;;;;8348922;28;20041;-86
2022/10/04 23:50:30;;;;;;;23.60;10.02;;;;;;;;;;8366535;28;20052;-86
2022/10/04 23:54:32;;;;;;;26.02;9.73;;;;;;;;;;8349344;28;20048;-86
2022/10/04 23:58:40;;;;;;;24.80;10.02;;;;;;;;;;8365630;28;20508;-86
